createdAt,value
2022-08-31T00:02:50.939Z,27.61
2022-08-31T00:07:50.093Z,27.52
2022-08-31T00:12:52.634Z,27.60
2022-08-31T00:17:57.498Z,27.59
2022-08-31T00:22:56.965Z,27.37
2022-08-31T00:27:57.545Z,27.34
2022-08-31T00:32:57.086Z,27.14
2022-08-31T00:37:57.724Z,27.02
2022-08-31T00:42:58.145Z,27.00
2022-08-31T00:47:57.568Z,26.91
2022-08-31T00:53:00.879Z,26.82
2022-08-31T00:58:03.522Z,26.91
2022-08-31T01:03:04.632Z,26.86
2022-08-31T01:08:04.788Z,26.98
2022-08-31T01:13:05.673Z,27.07
2022-08-31T01:18:07.837Z,27.07
2022-08-31T01:23:12.654Z,27.24
2022-08-31T01:28:12.915Z,27.24
2022-08-31T01:33:13.380Z,27.29
2022-08-31T01:38:14.377Z,27.25
2022-08-31T01:43:13.462Z,27.20
2022-08-31T01:48:16.851Z,27.12
2022-08-31T01:53:17.314Z,27.04
2022-08-31T01:58:16.702Z,26.87
2022-08-31T02:03:48.371Z,26.73
2022-08-31T02:08:48.911Z,26.66
2022-08-31T02:13:48.414Z,26.55
2022-08-31T02:18:47.434Z,26.53
2022-08-31T02:23:46.814Z,26.58
2022-08-31T02:28:47.439Z,26.74
2022-08-31T02:33:46.604Z,26.92
2022-08-31T02:38:45.600Z,27.04
2022-08-31T02:43:44.829Z,27.10
2022-08-31T02:48:46.402Z,27.10
2022-08-31T02:53:52.785Z,27.11
2022-08-31T02:58:55.059Z,27.13
2022-08-31T03:03:57.707Z,26.98
2022-08-31T03:08:57.500Z,26.82
2022-08-31T03:13:58.614Z,26.75
2022-08-31T03:19:02.371Z,26.63
2022-08-31T03:24:01.339Z,26.53
2022-08-31T03:29:00.272Z,26.42
2022-08-31T03:34:18.960Z,26.46
2022-08-31T03:39:22.214Z,26.49
2022-08-31T03:44:24.155Z,26.48
2022-08-31T03:49:25.733Z,26.43
2022-08-31T03:54:43.689Z,26.37
2022-08-31T03:59:43.565Z,26.40
2022-08-31T04:05:15.989Z,26.58
2022-08-31T04:10:33.947Z,26.59
2022-08-31T04:15:55.121Z,26.68
2022-08-31T04:21:16.894Z,26.65
2022-08-31T04:26:17.891Z,26.56
2022-08-31T04:31:17.976Z,26.39
2022-08-31T04:36:21.328Z,26.12
2022-08-31T04:41:34.022Z,26.01
2022-08-31T04:46:35.127Z,25.88
2022-08-31T04:51:38.846Z,25.81
2022-08-31T04:56:49.335Z,25.69
2022-08-31T05:02:06.851Z,25.72
2022-08-31T05:07:30.351Z,25.66
2022-08-31T05:12:31.809Z,25.77
2022-08-31T05:17:31.033Z,25.88
2022-08-31T05:22:35.743Z,25.87
2022-08-31T05:27:38.378Z,25.79
2022-08-31T05:32:40.547Z,25.74
2022-08-31T05:37:43.974Z,25.71
2022-08-31T05:42:46.885Z,25.65
2022-08-31T05:47:45.819Z,25.74
2022-08-31T05:52:47.053Z,25.98
2022-08-31T05:57:52.934Z,26.05
2022-08-31T06:02:54.244Z,26.33
2022-08-31T06:08:04.597Z,26.54
2022-08-31T06:13:05.588Z,26.59
2022-08-31T06:18:05.692Z,26.54
2022-08-31T06:23:08.687Z,26.87
2022-08-31T06:28:18.422Z,27.09
2022-08-31T06:33:18.418Z,27.32
2022-08-31T06:38:32.800Z,27.57
2022-08-31T06:44:08.134Z,27.66
2022-08-31T06:49:26.297Z,27.88
2022-08-31T06:54:39.920Z,28.18
2022-08-31T07:00:10.190Z,28.52
2022-08-31T07:05:57.205Z,28.78
2022-08-31T07:11:21.635Z,28.92
2022-08-31T07:16:25.623Z,28.98
2022-08-31T07:21:27.051Z,28.97
2022-08-31T07:26:36.400Z,29.07
2022-08-31T07:31:40.454Z,29.06
2022-08-31T07:37:00.058Z,29.01
2022-08-31T07:42:11.951Z,29.09
2022-08-31T07:47:14.763Z,29.19
2022-08-31T07:52:23.928Z,29.33
2022-08-31T07:57:36.338Z,29.39
2022-08-31T08:02:39.353Z,29.41
2022-08-31T08:07:40.619Z,29.66
2022-08-31T08:13:04.231Z,29.70
2022-08-31T08:18:43.372Z,29.87
2022-08-31T08:23:43.375Z,30.02
2022-08-31T08:29:07.779Z,30.22
2022-08-31T08:34:11.869Z,30.57
2022-08-31T08:39:13.308Z,30.89
2022-08-31T08:44:25.008Z,31.07
2022-08-31T08:49:35.426Z,31.55
2022-08-31T08:54:48.100Z,32.61
2022-08-31T08:59:49.583Z,33.66
2022-08-31T09:05:09.710Z,34.56
2022-08-31T09:10:42.289Z,35.31
2022-08-31T09:16:14.384Z,36.34
2022-08-31T09:21:22.244Z,37.26
2022-08-31T09:26:27.950Z,37.91
2022-08-31T09:31:41.419Z,38.47
2022-08-31T09:36:42.241Z,39.34
2022-08-31T09:41:42.219Z,39.99
2022-08-31T09:46:51.757Z,40.77
2022-08-31T09:51:50.876Z,41.22
2022-08-31T09:56:55.700Z,41.26
2022-08-31T10:02:01.196Z,41.70
2022-08-31T10:07:08.218Z,42.29
2022-08-31T10:12:10.887Z,42.23
2022-08-31T10:17:16.503Z,42.20
2022-08-31T10:22:31.557Z,42.58
2022-08-31T10:33:16.434Z,43.03
2022-08-31T10:38:26.328Z,42.97
2022-08-31T10:43:31.695Z,43.53
2022-08-31T10:48:34.202Z,44.29
2022-08-31T10:54:13.808Z,45.04
2022-08-31T10:59:39.755Z,44.83
2022-08-31T11:04:58.618Z,45.21
2022-08-31T11:10:13.056Z,44.94
2022-08-31T11:15:44.983Z,44.12
2022-08-31T11:21:05.099Z,43.92
2022-08-31T11:26:42.251Z,44.36
2022-08-31T11:31:42.492Z,44.99
2022-08-31T11:36:55.380Z,45.46
2022-08-31T11:41:55.590Z,45.88
2022-08-31T11:47:09.312Z,46.63
2022-08-31T11:52:38.777Z,46.68
2022-08-31T11:58:20.818Z,47.00
2022-08-31T12:03:44.558Z,47.03
2022-08-31T12:08:59.414Z,47.27
2022-08-31T12:14:09.902Z,47.12
2022-08-31T12:19:42.554Z,47.59
2022-08-31T12:25:01.240Z,48.13
2022-08-31T12:30:29.426Z,48.43
2022-08-31T12:35:31.714Z,48.68
2022-08-31T12:40:36.339Z,48.99
2022-08-31T12:46:19.595Z,49.57
2022-08-31T12:51:35.116Z,48.72
2022-08-31T12:56:42.191Z,48.81
2022-08-31T13:01:45.017Z,47.95
2022-08-31T13:06:45.389Z,46.48
2022-08-31T13:11:53.131Z,47.00
2022-08-31T13:16:54.945Z,45.93
2022-08-31T13:22:00.685Z,45.86
2022-08-31T13:27:16.239Z,46.03
2022-08-31T13:32:32.472Z,45.90
2022-08-31T13:37:37.462Z,45.84
2022-08-31T13:42:41.744Z,45.56
2022-08-31T13:47:57.687Z,45.36
2022-08-31T13:53:25.482Z,45.23
2022-08-31T13:58:34.048Z,44.90
2022-08-31T14:03:42.178Z,45.22
2022-08-31T14:08:41.261Z,45.60
2022-08-31T14:13:49.265Z,45.25
2022-08-31T14:18:50.786Z,45.27
2022-08-31T14:23:52.152Z,45.51
2022-08-31T14:28:55.568Z,46.14
2022-08-31T14:34:09.494Z,46.07
2022-08-31T14:39:08.900Z,44.98
2022-08-31T14:44:13.590Z,44.96
2022-08-31T14:49:16.468Z,45.25
2022-08-31T14:54:17.314Z,44.83
2022-08-31T14:59:21.637Z,43.78
2022-08-31T15:04:22.476Z,42.61
2022-08-31T15:09:22.562Z,41.99
2022-08-31T15:14:23.142Z,41.63
2022-08-31T15:19:23.233Z,40.88
2022-08-31T15:24:23.992Z,41.10
2022-08-31T15:29:24.917Z,40.93
2022-08-31T15:34:30.340Z,40.36
2022-08-31T15:39:32.008Z,39.79
2022-08-31T15:44:35.359Z,40.09
2022-08-31T15:49:35.163Z,40.10
2022-08-31T15:54:35.907Z,39.57
2022-08-31T15:59:37.106Z,39.21
2022-08-31T16:04:38.580Z,38.87
2022-08-31T16:09:41.071Z,38.41
2022-08-31T16:14:44.785Z,38.12
2022-08-31T16:19:43.725Z,37.57
2022-08-31T16:24:43.300Z,37.11
2022-08-31T16:29:43.382Z,36.49
2022-08-31T16:34:42.780Z,35.72
2022-08-31T16:39:44.439Z,35.09
2022-08-31T16:44:47.913Z,34.56
2022-08-31T16:49:49.021Z,34.40
2022-08-31T16:54:51.130Z,33.96
2022-08-31T16:59:54.932Z,33.71
2022-08-31T17:04:54.493Z,33.62
2022-08-31T17:09:57.765Z,33.26
2022-08-31T17:14:58.301Z,32.92
2022-08-31T17:19:58.802Z,32.89
2022-08-31T17:25:08.551Z,32.96
2022-08-31T17:30:10.708Z,32.49
2022-08-31T17:35:11.365Z,32.38
2022-08-31T17:40:14.323Z,32.39
2022-08-31T17:45:15.729Z,32.40
2022-08-31T17:50:17.784Z,32.26
2022-08-31T17:55:16.691Z,32.17
2022-08-31T18:00:17.893Z,32.19
2022-08-31T18:05:18.879Z,32.10
2022-08-31T18:10:18.773Z,32.11
2022-08-31T18:15:19.656Z,32.01
2022-08-31T18:20:19.231Z,31.82
2022-08-31T18:25:18.299Z,31.47
2022-08-31T18:30:19.412Z,31.20
2022-08-31T18:35:19.666Z,31.07
2022-08-31T18:40:35.807Z,31.00
2022-08-31T18:45:39.718Z,30.92
2022-08-31T18:50:39.210Z,30.78
2022-08-31T18:55:38.649Z,30.69
2022-08-31T19:00:41.734Z,30.29
2022-08-31T19:05:44.057Z,30.12
2022-08-31T19:10:49.174Z,30.18
2022-08-31T19:16:15.190Z,30.06
2022-08-31T19:21:26.006Z,30.16
2022-08-31T19:26:34.300Z,30.14
2022-08-31T19:31:35.413Z,30.06
2022-08-31T19:36:35.347Z,29.94
2022-08-31T19:41:35.271Z,29.87
2022-08-31T19:46:36.125Z,29.86
2022-08-31T19:51:36.108Z,29.64
2022-08-31T19:56:35.384Z,29.63
2022-08-31T20:01:36.705Z,29.39
2022-08-31T20:06:37.375Z,29.34
2022-08-31T20:11:40.089Z,29.15
2022-08-31T20:16:43.319Z,29.15
2022-08-31T20:21:44.714Z,29.15
2022-08-31T20:26:47.503Z,28.97
2022-08-31T20:31:56.190Z,28.81
2022-08-31T20:37:00.936Z,28.74
2022-08-31T20:42:01.663Z,28.56
2022-08-31T20:47:22.430Z,28.45
2022-08-31T20:52:22.985Z,28.45
2022-08-31T20:57:22.582Z,28.24
2022-08-31T21:02:23.287Z,28.01
2022-08-31T21:07:23.374Z,27.89
2022-08-31T21:12:23.011Z,27.88
2022-08-31T21:17:23.548Z,27.88
2022-08-31T21:22:22.405Z,27.82
2022-08-31T21:27:21.352Z,27.81
2022-08-31T21:32:20.264Z,27.75
2022-08-31T21:37:20.528Z,27.58
2022-08-31T21:42:19.943Z,27.47
2022-08-31T21:47:19.133Z,27.32
2022-08-31T21:52:18.680Z,27.30
2022-08-31T21:57:19.014Z,27.35
2022-08-31T22:02:18.479Z,27.28
2022-08-31T22:07:17.441Z,27.21
2022-08-31T22:12:18.305Z,27.20
2022-08-31T22:17:24.229Z,26.95
2022-08-31T22:22:32.115Z,26.86
2022-08-31T22:27:30.977Z,26.77
2022-08-31T22:32:31.562Z,26.59
2022-08-31T22:37:32.635Z,26.50
2022-08-31T22:42:31.891Z,26.43
2022-08-31T22:47:32.522Z,26.34
2022-08-31T22:52:34.148Z,26.37
2022-08-31T22:57:40.785Z,26.22
2022-08-31T23:03:06.290Z,26.17
2022-08-31T23:08:12.440Z,26.23
2022-08-31T23:13:11.706Z,26.27
2022-08-31T23:18:19.784Z,26.22
2022-08-31T23:23:20.380Z,26.16
2022-08-31T23:28:20.677Z,26.28
2022-08-31T23:33:21.425Z,26.26
2022-08-31T23:38:20.774Z,26.26
2022-08-31T23:43:22.792Z,26.32
2022-08-31T23:48:24.105Z,26.33
2022-08-31T23:53:31.157Z,26.34
2022-08-31T23:58:33.895Z,26.23
